createdAt,value
2023-04-18T00:00:40.733Z,25.3
2023-04-18T00:01:42.703Z,25.3
2023-04-18T00:02:44.785Z,25.4
2023-04-18T00:03:47.677Z,25.3
2023-04-18T00:04:50.877Z,25.4
2023-04-18T00:05:53.352Z,25.3
2023-04-18T00:06:55.212Z,25.4
2023-04-18T00:07:57.068Z,25.3
2023-04-18T00:08:59.063Z,25.3
2023-04-18T00:10:01.068Z,25.3
2023-04-18T00:11:02.933Z,25.3
2023-04-18T00:12:05.185Z,25.3
2023-04-18T00:13:07.052Z,25.4
2023-04-18T00:14:08.990Z,25.4
2023-04-18T00:15:10.841Z,25.3
2023-04-18T00:16:12.702Z,25.4
2023-04-18T00:17:14.885Z,25.4
2023-04-18T00:18:16.903Z,25.4
2023-04-18T00:19:18.951Z,25.4
2023-04-18T00:20:20.812Z,25.4
2023-04-18T00:21:22.831Z,25.4
2023-04-18T00:22:24.708Z,25.4
2023-04-18T00:23:26.660Z,25.4
2023-04-18T00:24:28.517Z,25.4
2023-04-18T00:25:30.443Z,25.4
2023-04-18T00:26:32.327Z,25.4
2023-04-18T00:27:34.170Z,25.4
2023-04-18T00:28:36.154Z,25.5
2023-04-18T00:29:38.168Z,25.5
2023-04-18T00:30:40.063Z,25.5
2023-04-18T00:31:42.006Z,25.5
2023-04-18T00:32:43.980Z,25.5
2023-04-18T00:33:45.961Z,25.5
2023-04-18T00:34:47.833Z,25.4
2023-04-18T00:35:49.797Z,25.5
2023-04-18T00:36:51.634Z,25.5
2023-04-18T00:37:53.486Z,25.5
2023-04-18T00:38:55.339Z,25.5
2023-04-18T00:39:57.189Z,25.5
2023-04-18T00:40:59.031Z,25.6
2023-04-18T00:42:00.888Z,25.6
2023-04-18T00:43:02.952Z,25.6
2023-04-18T00:44:04.820Z,25.6
2023-04-18T00:45:06.642Z,25.5
2023-04-18T00:46:08.559Z,25.6
2023-04-18T00:47:10.523Z,25.6
2023-04-18T00:48:12.492Z,25.6
2023-04-18T00:49:14.350Z,25.6
2023-04-18T00:50:16.088Z,25.7
2023-04-18T00:51:17.939Z,25.7
2023-04-18T00:52:19.800Z,25.7
2023-04-18T00:53:21.756Z,25.7
2023-04-18T00:54:23.603Z,25.7
2023-04-18T00:55:25.663Z,25.8
2023-04-18T00:56:27.507Z,25.8
2023-04-18T00:57:29.349Z,25.8
2023-04-18T00:58:31.301Z,25.7
2023-04-18T00:59:33.295Z,25.7
2023-04-18T01:00:35.212Z,25.8
2023-04-18T01:01:37.203Z,25.7
2023-04-18T01:02:39.299Z,25.7
2023-04-18T01:03:42.220Z,25.7
2023-04-18T01:04:44.861Z,25.8
2023-04-18T01:05:46.634Z,25.8
2023-04-18T01:06:48.452Z,25.8
2023-04-18T01:07:50.306Z,25.8
2023-04-18T01:08:52.157Z,25.8
2023-04-18T01:09:54.113Z,25.8
2023-04-18T01:10:56.061Z,25.8
2023-04-18T01:11:57.914Z,25.8
2023-04-18T01:12:59.765Z,25.8
2023-04-18T01:14:01.745Z,25.9
2023-04-18T01:15:03.606Z,25.8
2023-04-18T01:16:05.747Z,25.8
2023-04-18T01:17:07.571Z,25.9
2023-04-18T01:18:09.438Z,25.9
2023-04-18T01:19:11.273Z,25.8
2023-04-18T01:20:13.223Z,25.8
2023-04-18T01:21:14.979Z,25.9
2023-04-18T01:22:16.821Z,25.9
2023-04-18T01:23:18.668Z,25.9
2023-04-18T01:24:20.314Z,25.9
2023-04-18T01:25:22.273Z,25.9
2023-04-18T01:26:24.326Z,25.9
2023-04-18T01:27:26.188Z,25.9
2023-04-18T01:28:28.147Z,26
2023-04-18T01:29:30.077Z,26
2023-04-18T01:30:32.076Z,25.9
2023-04-18T01:31:34.135Z,26
2023-04-18T01:32:36.201Z,26
2023-04-18T01:33:38.210Z,26
2023-04-18T01:34:40.066Z,26
2023-04-18T01:35:41.854Z,26
2023-04-18T01:36:43.765Z,25.9
2023-04-18T01:37:45.711Z,26
2023-04-18T01:38:47.566Z,26
2023-04-18T01:39:49.309Z,26
2023-04-18T01:40:51.181Z,26
2023-04-18T01:41:53.116Z,26
2023-04-18T01:42:54.954Z,26
2023-04-18T01:43:56.803Z,26
2023-04-18T01:44:58.862Z,26
2023-04-18T01:46:00.831Z,26
2023-04-18T01:47:02.985Z,26
2023-04-18T01:48:05.032Z,26
2023-04-18T01:49:06.875Z,26
2023-04-18T01:50:08.729Z,26.1
2023-04-18T01:51:10.566Z,26
2023-04-18T01:52:12.356Z,26
2023-04-18T01:53:14.275Z,26
2023-04-18T01:54:16.951Z,26
2023-04-18T01:55:18.788Z,26
2023-04-18T01:56:20.644Z,26
2023-04-18T01:57:22.498Z,26
2023-04-18T01:58:24.339Z,26
2023-04-18T01:59:26.190Z,26
2023-04-18T02:00:28.180Z,26
2023-04-18T02:01:30.230Z,26
2023-04-18T02:02:32.374Z,26
2023-04-18T02:03:35.127Z,26
2023-04-18T02:04:37.893Z,26
2023-04-18T02:05:39.751Z,26
2023-04-18T02:06:41.626Z,26
2023-04-18T02:07:43.440Z,26.1
2023-04-18T02:08:45.314Z,26
2023-04-18T02:09:47.153Z,26
2023-04-18T02:10:49.116Z,26
2023-04-18T02:11:50.978Z,26.1
2023-04-18T02:12:52.801Z,26.1
2023-04-18T02:13:54.662Z,26.1
2023-04-18T02:14:56.614Z,26
2023-04-18T02:15:58.695Z,26.1
2023-04-18T02:17:00.631Z,26
2023-04-18T02:18:02.687Z,26.1
2023-04-18T02:19:04.721Z,26
2023-04-18T02:20:06.684Z,26
2023-04-18T02:21:08.520Z,26
2023-04-18T02:22:10.379Z,26.1
2023-04-18T02:23:12.219Z,26.1
2023-04-18T02:24:14.881Z,26.1
2023-04-18T02:25:17.377Z,26
2023-04-18T02:26:19.213Z,26.1
2023-04-18T02:27:21.053Z,26
2023-04-18T02:28:22.904Z,26.1
2023-04-18T02:29:24.759Z,26.1
2023-04-18T02:30:26.616Z,26.1
2023-04-18T02:31:28.642Z,26.1
2023-04-18T02:32:30.772Z,26.1
2023-04-18T02:33:32.772Z,26.2
2023-04-18T02:34:34.723Z,26.2
2023-04-18T02:35:36.583Z,26.2
2023-04-18T02:36:38.433Z,26.2
2023-04-18T02:37:40.247Z,26.1
2023-04-18T02:38:42.244Z,26.2
2023-04-18T02:39:44.078Z,26.2
2023-04-18T02:40:46.031Z,26.1
2023-04-18T02:41:47.891Z,26.1
2023-04-18T02:42:49.857Z,26.2
2023-04-18T02:43:51.683Z,26.2
2023-04-18T02:44:53.439Z,26.2
2023-04-18T02:45:55.298Z,26.2
2023-04-18T02:46:57.432Z,26.2
2023-04-18T02:47:59.430Z,26.2
2023-04-18T02:49:01.368Z,26.2
2023-04-18T02:50:03.082Z,26.2
2023-04-18T02:51:04.945Z,26.3
2023-04-18T02:52:06.692Z,26.2
2023-04-18T02:53:08.636Z,26.2
2023-04-18T02:54:10.470Z,26.2
2023-04-18T02:55:12.451Z,26.3
2023-04-18T02:56:14.396Z,26.2
2023-04-18T02:57:16.242Z,26.3
2023-04-18T02:58:18.092Z,26.2
2023-04-18T02:59:19.949Z,26.3
2023-04-18T03:00:21.801Z,26.3
2023-04-18T03:01:23.862Z,26.3
2023-04-18T03:02:26.340Z,26.3
2023-04-18T03:03:28.729Z,26.3
2023-04-18T03:04:30.753Z,26.3
2023-04-18T03:05:32.688Z,26.3
2023-04-18T03:06:34.633Z,26.4
2023-04-18T03:07:36.487Z,26.3
2023-04-18T03:08:38.460Z,26.3
2023-04-18T03:09:40.387Z,26.3
2023-04-18T03:10:42.182Z,26.3
2023-04-18T03:11:43.902Z,26.4
2023-04-18T03:12:45.736Z,26.4
2023-04-18T03:13:47.690Z,26.4
2023-04-18T03:14:49.535Z,26.3
2023-04-18T03:15:51.523Z,26.4
2023-04-18T03:16:55.788Z,26.4
2023-04-18T03:17:57.894Z,26.4
2023-04-18T03:18:59.833Z,26.4
2023-04-18T03:20:01.658Z,26.5
2023-04-18T03:21:03.611Z,26.5
2023-04-18T03:22:05.485Z,26.4
2023-04-18T03:23:07.317Z,26.4
2023-04-18T03:24:12.380Z,26.4
2023-04-18T03:25:14.793Z,26.5
2023-04-18T03:26:16.556Z,26.4
2023-04-18T03:27:18.504Z,26.4
2023-04-18T03:28:20.447Z,26.4
2023-04-18T03:29:22.279Z,26.4
2023-04-18T03:30:24.148Z,26.4
2023-04-18T03:31:26.149Z,26.4
2023-04-18T03:32:28.077Z,26.4
2023-04-18T03:33:30.332Z,26.4
2023-04-18T03:34:32.230Z,26.4
2023-04-18T03:35:34.009Z,26.4
2023-04-18T03:36:35.862Z,26.4
2023-04-18T03:37:37.610Z,26.4
2023-04-18T03:38:39.312Z,26.5
2023-04-18T03:39:41.102Z,26.4
2023-04-18T03:40:42.899Z,26.4
2023-04-18T03:41:44.727Z,26.5
2023-04-18T03:42:46.761Z,26.6
2023-04-18T03:43:48.603Z,26.7
2023-04-18T03:44:50.569Z,26.9
2023-04-18T03:45:52.550Z,27
2023-04-18T03:46:54.677Z,27.1
2023-04-18T03:47:56.739Z,27.2
2023-04-18T03:48:58.675Z,27.2
2023-04-18T03:50:00.659Z,27.3
2023-04-18T03:51:02.486Z,27.3
2023-04-18T03:52:04.339Z,27.3
2023-04-18T03:53:06.072Z,27.4
2023-04-18T03:54:07.937Z,27.5
2023-04-18T03:55:09.888Z,27.8
2023-04-18T03:56:11.745Z,27.9
2023-04-18T03:57:13.478Z,27.9
2023-04-18T03:58:15.339Z,27.8
2023-04-18T03:59:17.190Z,27.9
2023-04-18T04:00:19.037Z,27.9
2023-04-18T04:01:20.889Z,28.2
2023-04-18T04:02:23.024Z,28
2023-04-18T04:03:25.625Z,28.1
2023-04-18T04:04:28.243Z,28.3
2023-04-18T04:05:30.258Z,28.4
2023-04-18T04:06:32.095Z,28.4
2023-04-18T04:07:33.838Z,28.4
2023-04-18T04:08:35.673Z,28.4
2023-04-18T04:09:37.432Z,28.4
2023-04-18T04:10:39.276Z,28.5
2023-04-18T04:11:41.142Z,28.7
2023-04-18T04:12:42.976Z,28.6
2023-04-18T04:13:44.822Z,28.7
2023-04-18T04:14:46.786Z,28.8
2023-04-18T04:15:48.629Z,28.9
2023-04-18T04:16:50.613Z,28.8
2023-04-18T04:17:52.777Z,28.8
2023-04-18T04:18:54.721Z,28.9
2023-04-18T04:19:56.539Z,28.9
2023-04-18T04:20:58.424Z,28.9
2023-04-18T04:22:00.352Z,29
2023-04-18T04:23:02.207Z,29.1
2023-04-18T04:24:04.033Z,29.1
2023-04-18T04:25:05.771Z,29.1
2023-04-18T04:26:07.651Z,29.1
2023-04-18T04:27:09.538Z,29.2
2023-04-18T04:28:11.348Z,29.1
2023-04-18T04:29:13.087Z,29.2
2023-04-18T04:30:15.145Z,29.2
2023-04-18T04:31:17.241Z,29.1
2023-04-18T04:32:19.268Z,29.1
2023-04-18T04:33:21.107Z,29.1
2023-04-18T04:34:22.853Z,29
2023-04-18T04:35:24.812Z,29
2023-04-18T04:36:26.780Z,29.1
2023-04-18T04:37:29.223Z,29
2023-04-18T04:38:31.581Z,29.1
2023-04-18T04:39:33.425Z,29
2023-04-18T04:40:35.287Z,29.1
2023-04-18T04:41:37.235Z,29.1
2023-04-18T04:42:39.085Z,29.2
2023-04-18T04:43:40.942Z,29.1
2023-04-18T04:44:43.206Z,29.1
2023-04-18T04:45:45.695Z,29
2023-04-18T04:46:47.711Z,29
2023-04-18T04:47:49.587Z,28.9
2023-04-18T04:48:51.414Z,29
2023-04-18T04:49:53.272Z,29
2023-04-18T04:50:55.226Z,28.5
2023-04-18T04:51:57.118Z,28.5
2023-04-18T04:53:00.033Z,29.1
2023-04-18T04:54:01.995Z,29.3
2023-04-18T04:55:03.738Z,29.4
2023-04-18T04:56:05.590Z,29.5
2023-04-18T04:57:07.536Z,29.5
2023-04-18T04:58:09.499Z,29.6
2023-04-18T04:59:11.237Z,29.6
2023-04-18T05:00:13.099Z,29.6
2023-04-18T05:01:15.094Z,29.7
2023-04-18T05:02:17.418Z,29.7
2023-04-18T05:03:19.796Z,29.7
2023-04-18T05:04:22.419Z,29.5
2023-04-18T05:05:24.777Z,29.6
2023-04-18T05:06:26.870Z,29.6
2023-04-18T05:07:28.807Z,29.5
2023-04-18T05:08:30.573Z,29.5
2023-04-18T05:09:32.485Z,29.5
2023-04-18T05:10:34.158Z,29.4
2023-04-18T05:11:36.006Z,29.4
2023-04-18T05:12:37.952Z,29.3
2023-04-18T05:13:39.803Z,29.3
2023-04-18T05:14:41.656Z,29.3
2023-04-18T05:15:46.242Z,29.3
2023-04-18T05:16:48.247Z,29.3
2023-04-18T05:17:50.398Z,29.2
2023-04-18T05:18:52.446Z,29.2
2023-04-18T05:19:54.387Z,29.2
2023-04-18T05:20:56.248Z,29.2
2023-04-18T05:21:58.377Z,29.2
2023-04-18T05:23:00.304Z,29.1
2023-04-18T05:24:02.212Z,29.1
2023-04-18T05:25:04.043Z,29.1
2023-04-18T05:26:05.776Z,29
2023-04-18T05:27:07.573Z,29.1
2023-04-18T05:28:09.398Z,29.2
2023-04-18T05:29:11.358Z,29.1
2023-04-18T05:30:13.198Z,29.1
2023-04-18T05:31:15.169Z,29.2
2023-04-18T05:32:17.074Z,29.2
2023-04-18T05:33:18.848Z,29.2
2023-04-18T05:34:20.807Z,29.1
2023-04-18T05:35:22.676Z,29.1
2023-04-18T05:36:24.512Z,29.1
2023-04-18T05:37:26.467Z,29
2023-04-18T05:38:28.433Z,29
2023-04-18T05:39:30.366Z,28.9
2023-04-18T05:40:32.316Z,28.9
2023-04-18T05:41:34.163Z,28.9
2023-04-18T05:42:36.022Z,28.8
2023-04-18T05:43:37.866Z,28.9
2023-04-18T05:44:39.712Z,28.8
2023-04-18T05:45:41.665Z,28.8
2023-04-18T05:46:43.869Z,28.7
2023-04-18T05:47:46.230Z,28.7
2023-04-18T05:48:48.260Z,28.7
2023-04-18T05:49:50.106Z,28.7
2023-04-18T05:50:51.860Z,28.7
2023-04-18T05:51:53.699Z,28.7
2023-04-18T05:52:55.649Z,28.7
2023-04-18T05:53:57.512Z,28.9
2023-04-18T05:54:59.353Z,28.9
2023-04-18T05:56:01.096Z,29
2023-04-18T05:57:04.996Z,28.9
2023-04-18T05:58:06.845Z,29
2023-04-18T05:59:08.699Z,29
2023-04-18T06:00:10.541Z,28.8
2023-04-18T06:01:12.403Z,29.1
2023-04-18T06:02:14.539Z,29.4
2023-04-18T06:04:20.814Z,29.4
2023-04-18T06:05:24.246Z,29.4
2023-04-18T06:06:27.046Z,29.3
2023-04-18T06:07:29.034Z,29.2
2023-04-18T06:08:31.009Z,29.2
2023-04-18T06:09:32.913Z,29.2
2023-04-18T06:10:38.947Z,29.2
2023-04-18T06:11:41.024Z,29
2023-04-18T06:12:42.996Z,29
2023-04-18T06:13:44.931Z,29
2023-04-18T06:14:46.557Z,28.9
2023-04-18T06:15:48.552Z,28.9
2023-04-18T06:16:50.481Z,28.8
2023-04-18T06:17:52.378Z,28.7
2023-04-18T06:18:54.491Z,28.8
2023-04-18T06:19:56.176Z,28.9
2023-04-18T06:20:57.999Z,28.8
2023-04-18T06:21:59.958Z,28.8
2023-04-18T06:23:01.745Z,28.8
2023-04-18T06:24:03.643Z,28.8
2023-04-18T06:25:05.831Z,28.8
2023-04-18T06:26:07.688Z,28.9
2023-04-18T06:27:28.183Z,28.8
2023-04-18T06:28:33.791Z,28.8
2023-04-18T06:29:37.989Z,28.8
2023-04-18T06:30:39.936Z,28.7
2023-04-18T06:31:41.811Z,28.8
2023-04-18T06:32:44.269Z,28.7
2023-04-18T06:33:46.368Z,28.6
2023-04-18T06:34:48.151Z,28.6
2023-04-18T06:35:49.958Z,28.6
2023-04-18T06:36:51.852Z,28.6
2023-04-18T06:37:53.805Z,28.6
2023-04-18T06:38:55.554Z,28.6
2023-04-18T06:39:57.515Z,28.8
2023-04-18T06:40:59.506Z,28.8
2023-04-18T06:42:01.314Z,28.7
2023-04-18T06:43:03.256Z,28.7
2023-04-18T06:44:05.217Z,28.6
2023-04-18T06:45:07.064Z,28.6
2023-04-18T06:46:08.959Z,28.6
2023-04-18T06:47:10.959Z,28.7
2023-04-18T06:48:12.825Z,28.6
2023-04-18T06:49:14.767Z,28.6
2023-04-18T06:50:16.723Z,28.6
2023-04-18T06:51:18.785Z,28.6
2023-04-18T06:52:20.634Z,28.6
2023-04-18T06:53:22.479Z,28.6
2023-04-18T06:54:24.332Z,28.5
2023-04-18T06:55:26.272Z,28.5
2023-04-18T06:56:28.568Z,28.5
2023-04-18T06:57:30.406Z,28.6
2023-04-18T06:58:32.342Z,28.5
2023-04-18T06:59:34.301Z,28.5
2023-04-18T07:00:36.147Z,28.5
2023-04-18T07:01:38.015Z,28.5
2023-04-18T07:02:40.330Z,28.5
2023-04-18T07:03:42.748Z,28.4
2023-04-18T07:04:45.299Z,28.5
2023-04-18T07:05:47.239Z,28.5
2023-04-18T07:06:48.994Z,28.6
2023-04-18T07:07:50.847Z,28.5
2023-04-18T07:08:54.627Z,28.6
2023-04-18T07:09:56.492Z,28.5
2023-04-18T07:10:58.531Z,28.3
2023-04-18T07:12:00.410Z,28.2
2023-04-18T07:13:02.279Z,28.4
2023-04-18T07:14:04.200Z,28.2
2023-04-18T07:15:06.040Z,28.3
2023-04-18T07:16:07.882Z,28.2
2023-04-18T07:17:10.084Z,28.1
2023-04-18T07:18:16.097Z,28.1
2023-04-18T07:19:39.949Z,28
2023-04-18T07:20:41.816Z,27.9
2023-04-18T07:21:43.942Z,28
2023-04-18T07:22:46.020Z,27.9
2023-04-18T07:23:47.779Z,27.8
2023-04-18T07:24:49.521Z,27.8
2023-04-18T07:25:51.362Z,27.7
2023-04-18T07:26:55.393Z,27.6
2023-04-18T07:27:57.251Z,27.5
2023-04-18T07:28:59.059Z,27.5
2023-04-18T07:30:00.818Z,27.5
2023-04-18T07:31:02.875Z,27.4
2023-04-18T07:32:08.579Z,27.5
2023-04-18T07:33:10.553Z,27.5
2023-04-18T07:34:12.940Z,27.4
2023-04-18T07:35:15.416Z,27.3
2023-04-18T07:36:17.139Z,27.3
2023-04-18T07:37:18.877Z,27.5
2023-04-18T07:38:20.732Z,27.4
2023-04-18T07:39:22.693Z,27.5
2023-04-18T07:40:24.523Z,27.4
2023-04-18T07:41:26.386Z,27.3
2023-04-18T07:42:28.460Z,27.2
2023-04-18T07:43:30.451Z,27.2
2023-04-18T07:44:32.353Z,27
2023-04-18T07:45:34.198Z,27
2023-04-18T07:46:36.072Z,27
2023-04-18T07:47:38.232Z,26.9
2023-04-18T07:48:40.068Z,26.8
2023-04-18T07:49:42.003Z,26.9
2023-04-18T07:50:43.848Z,26.8
2023-04-18T07:51:45.684Z,26.9
2023-04-18T07:52:47.433Z,26.8
2023-04-18T07:53:49.308Z,26.7
2023-04-18T07:54:51.267Z,26.7
2023-04-18T07:55:53.101Z,26.7
2023-04-18T07:56:54.956Z,26.6
2023-04-18T07:57:57.018Z,26.5
2023-04-18T07:58:58.949Z,26.5
2023-04-18T08:00:00.923Z,26.5
2023-04-18T08:01:02.766Z,26.5
2023-04-18T08:02:04.639Z,26.5
2023-04-18T08:03:06.880Z,26.5
2023-04-18T08:04:09.642Z,26.4
2023-04-18T08:05:12.339Z,26.5
2023-04-18T08:06:14.376Z,26.4
2023-04-18T08:07:16.222Z,26.4
2023-04-18T08:08:18.049Z,26.4
2023-04-18T08:09:19.926Z,26.2
2023-04-18T08:10:24.087Z,26.2
2023-04-18T08:11:26.199Z,26.3
2023-04-18T08:12:28.138Z,26.3
2023-04-18T08:13:30.403Z,26.3
2023-04-18T08:14:32.224Z,26.2
2023-04-18T08:15:34.005Z,26.1
2023-04-18T08:16:36.124Z,26.1
2023-04-18T08:17:38.231Z,26.1
2023-04-18T08:18:40.260Z,25.8
2023-04-18T08:19:41.996Z,26
2023-04-18T08:20:43.858Z,25.9
2023-04-18T08:21:45.741Z,26.1
2023-04-18T08:23:07.773Z,26.1
2023-04-18T08:24:15.115Z,26
2023-04-18T08:25:16.965Z,25.9
2023-04-18T08:26:18.917Z,26
2023-04-18T08:27:20.765Z,25.8
2023-04-18T08:28:22.613Z,25.8
2023-04-18T08:29:24.771Z,25.9
2023-04-18T08:30:26.980Z,25.9
2023-04-18T08:31:28.917Z,25.9
2023-04-18T08:32:31.199Z,25.8
2023-04-18T08:33:33.202Z,25.6
2023-04-18T08:34:34.936Z,25.4
2023-04-18T08:35:36.803Z,25.4
2023-04-18T08:36:38.651Z,25.3
2023-04-18T08:37:40.393Z,25.2
2023-04-18T08:38:42.386Z,25.2
2023-04-18T08:39:44.189Z,25.4
2023-04-18T08:40:46.049Z,25.2
2023-04-18T08:41:47.904Z,25.2
2023-04-18T08:42:49.690Z,25.2
2023-04-18T08:43:51.588Z,25
2023-04-18T08:44:53.652Z,25.2
2023-04-18T08:45:55.774Z,25.1
2023-04-18T08:46:57.671Z,25.1
2023-04-18T08:47:59.634Z,25.1
2023-04-18T08:49:01.762Z,25
2023-04-18T08:50:03.710Z,25
2023-04-18T08:51:05.573Z,24.9
2023-04-18T08:52:07.317Z,24.9
2023-04-18T08:53:09.166Z,24.8
2023-04-18T08:54:11.014Z,24.8
2023-04-18T08:55:13.018Z,24.7
2023-04-18T08:56:15.228Z,24.7
2023-04-18T08:57:17.086Z,24.6
2023-04-18T08:58:18.928Z,24.6
2023-04-18T08:59:21.325Z,24.6
2023-04-18T09:00:23.335Z,24.6
2023-04-18T09:01:25.563Z,24.6
2023-04-18T09:02:27.663Z,24.6
2023-04-18T09:03:29.739Z,24.5
2023-04-18T09:04:32.015Z,24.5
2023-04-18T09:05:33.934Z,24.4
2023-04-18T09:06:35.718Z,24.2
2023-04-18T09:07:37.425Z,24.4
2023-04-18T09:08:39.171Z,24.3
2023-04-18T09:09:40.995Z,24.3
2023-04-18T09:10:46.716Z,24.3
2023-04-18T09:11:48.601Z,24.2
2023-04-18T09:12:50.973Z,24.2
2023-04-18T09:13:52.814Z,24.2
2023-04-18T09:14:54.683Z,24.2
2023-04-18T09:15:56.936Z,24.2
2023-04-18T09:16:59.082Z,24.2
2023-04-18T09:18:01.367Z,24.3
2023-04-18T09:19:06.760Z,24.3
2023-04-18T09:20:08.731Z,24.3
2023-04-18T09:21:10.686Z,24.2
2023-04-18T09:22:12.451Z,24.4
2023-04-18T09:23:14.436Z,24.3
2023-04-18T09:24:16.755Z,24.2
2023-04-18T09:25:18.498Z,24.3
2023-04-18T09:26:20.355Z,24.4
2023-04-18T09:27:23.121Z,24.4
2023-04-18T09:28:24.874Z,24.4
2023-04-18T09:29:26.817Z,24.4
2023-04-18T09:30:28.665Z,24.4
2023-04-18T09:31:31.267Z,24.4
2023-04-18T09:32:33.475Z,24.6
2023-04-18T09:33:35.341Z,24.4
2023-04-18T09:34:37.154Z,24
2023-04-18T09:35:38.965Z,24.1
2023-04-18T09:36:40.823Z,24.1
2023-04-18T09:37:42.646Z,24.2
2023-04-18T09:38:44.503Z,24.3
2023-04-18T09:39:46.452Z,24.3
2023-04-18T09:40:48.412Z,24.4
2023-04-18T09:41:50.255Z,24.4
2023-04-18T09:42:52.112Z,24.4
2023-04-18T09:43:53.950Z,24.5
2023-04-18T09:44:57.070Z,24.5
2023-04-18T09:45:58.948Z,24.4
2023-04-18T09:47:01.445Z,24.4
2023-04-18T09:48:03.550Z,24.4
2023-04-18T09:49:05.620Z,24.5
2023-04-18T09:50:07.372Z,24.5
2023-04-18T09:51:09.160Z,24.6
2023-04-18T09:52:11.112Z,24.6
2023-04-18T09:53:12.849Z,24.5
2023-04-18T09:54:15.267Z,24.5
2023-04-18T09:55:17.684Z,24.5
2023-04-18T09:56:19.496Z,24.6
2023-04-18T09:57:21.370Z,24.7
2023-04-18T09:58:23.253Z,24.9
2023-04-18T09:59:25.176Z,24.9
2023-04-18T10:00:26.946Z,25
2023-04-18T10:01:29.039Z,24.9
2023-04-18T10:02:31.845Z,25
2023-04-18T10:03:34.039Z,24.8
2023-04-18T10:04:36.243Z,24.7
2023-04-18T10:05:38.351Z,24.6
2023-04-18T10:06:40.375Z,24.5
2023-04-18T10:07:42.332Z,24.5
2023-04-18T10:08:44.089Z,24.5
2023-04-18T10:09:45.907Z,24.5
2023-04-18T10:10:47.775Z,24.5
2023-04-18T10:11:49.631Z,24.6
2023-04-18T10:12:51.686Z,24.6
2023-04-18T10:13:53.799Z,24.6
2023-04-18T10:14:55.588Z,24.5
2023-04-18T10:15:57.602Z,24.5
2023-04-18T10:16:59.597Z,24.5
2023-04-18T10:18:06.502Z,24.5
2023-04-18T10:19:08.748Z,24.5
2023-04-18T10:20:10.471Z,24.5
2023-04-18T10:21:12.285Z,24.5
2023-04-18T10:22:14.196Z,24.4
2023-04-18T10:23:16.000Z,24.4
2023-04-18T10:24:17.767Z,24.5
2023-04-18T10:25:19.626Z,24.6
2023-04-18T10:26:21.469Z,24.5
2023-04-18T10:27:23.216Z,24.6
2023-04-18T10:28:25.073Z,24.5
2023-04-18T10:29:26.831Z,24.6
2023-04-18T10:30:28.646Z,24.6
2023-04-18T10:31:30.797Z,24.5
2023-04-18T10:32:33.048Z,24.4
2023-04-18T10:33:35.154Z,24.4
2023-04-18T10:34:44.611Z,24.4
2023-04-18T10:35:46.364Z,24.2
2023-04-18T10:36:48.169Z,24.3
2023-04-18T10:37:49.904Z,24.3
2023-04-18T10:38:51.762Z,24.3
2023-04-18T10:39:53.729Z,24.3
2023-04-18T10:40:55.677Z,24.3
2023-04-18T10:41:57.535Z,24.3
2023-04-18T10:42:59.478Z,24.3
2023-04-18T10:44:01.333Z,24.2
2023-04-18T10:45:03.167Z,24.2
2023-04-18T10:46:05.014Z,24.2
2023-04-18T10:47:07.025Z,24.3
2023-04-18T10:48:09.118Z,24.3
2023-04-18T10:49:11.955Z,24.2
2023-04-18T10:50:14.989Z,24.2
2023-04-18T10:51:16.907Z,24.1
2023-04-18T10:52:18.784Z,24
2023-04-18T10:53:20.512Z,24
2023-04-18T10:54:22.281Z,24
2023-04-18T10:55:24.246Z,23.9
2023-04-18T10:56:26.088Z,24
2023-04-18T10:57:28.284Z,23.8
2023-04-18T10:58:30.095Z,23.9
2023-04-18T10:59:31.886Z,23.8
2023-04-18T11:00:33.748Z,23.6
2023-04-18T11:01:35.969Z,23.6
2023-04-18T11:02:38.053Z,23.7
2023-04-18T11:03:40.479Z,23.7
2023-04-18T11:04:42.935Z,23.8
2023-04-18T11:05:45.505Z,23.8
2023-04-18T11:06:48.471Z,24
2023-04-18T11:07:50.328Z,23.9
2023-04-18T11:08:52.169Z,23.9
2023-04-18T11:09:53.920Z,23.9
2023-04-18T11:10:55.881Z,23.8
2023-04-18T11:11:58.041Z,23.8
2023-04-18T11:12:59.885Z,23.8
2023-04-18T11:14:01.742Z,23.7
2023-04-18T11:15:03.585Z,23.8
2023-04-18T11:16:05.439Z,23.9
2023-04-18T11:17:07.583Z,24
2023-04-18T11:18:09.612Z,24
2023-04-18T11:19:11.704Z,24
2023-04-18T11:20:13.676Z,24
2023-04-18T11:21:15.687Z,23.6
2023-04-18T11:22:17.607Z,23.8
2023-04-18T11:23:19.612Z,23.8
2023-04-18T11:24:21.579Z,23.8
2023-04-18T11:25:23.417Z,24
2023-04-18T11:26:25.260Z,24
2023-04-18T11:27:27.221Z,23.9
2023-04-18T11:28:29.163Z,24
2023-04-18T11:29:31.012Z,24
2023-04-18T11:30:32.970Z,24.1
2023-04-18T11:31:34.972Z,24
2023-04-18T11:32:37.224Z,23.9
2023-04-18T11:33:39.242Z,23.9
2023-04-18T11:34:41.093Z,23.9
2023-04-18T11:35:42.852Z,24
2023-04-18T11:36:45.340Z,24.1
2023-04-18T11:37:47.439Z,24
2023-04-18T11:38:49.303Z,24.2
2023-04-18T11:39:51.152Z,24.1
2023-04-18T11:40:53.416Z,24.1
2023-04-18T11:41:55.522Z,24
2023-04-18T11:42:57.328Z,23.8
2023-04-18T11:43:59.181Z,24
2023-04-18T11:45:00.921Z,24.1
2023-04-18T11:46:02.887Z,24.2
2023-04-18T11:47:04.739Z,24.2
2023-04-18T11:48:06.531Z,24.2
2023-04-18T11:49:08.635Z,24.2
2023-04-18T11:50:10.428Z,24.2
2023-04-18T11:51:12.429Z,24.2
2023-04-18T11:52:14.343Z,24.2
2023-04-18T11:53:16.237Z,24.1
2023-04-18T11:54:18.093Z,24.2
2023-04-18T11:55:19.942Z,24.2
2023-04-18T11:56:21.649Z,24.2
2023-04-18T11:57:23.425Z,24.2
2023-04-18T11:58:25.274Z,24.1
2023-04-18T11:59:27.232Z,24.1
2023-04-18T12:00:28.985Z,24.1
2023-04-18T12:01:31.045Z,24
2023-04-18T12:02:33.185Z,24.1
2023-04-18T12:03:35.664Z,24.2
2023-04-18T12:04:39.766Z,24.3
2023-04-18T12:05:42.789Z,24.3
2023-04-18T12:06:45.206Z,24.5
2023-04-18T12:07:47.164Z,24.6
2023-04-18T12:08:48.990Z,24.7
2023-04-18T12:09:50.859Z,24.8
2023-04-18T12:10:52.672Z,24.8
2023-04-18T12:11:54.569Z,24.9
2023-04-18T12:12:56.308Z,24.9
2023-04-18T12:13:58.142Z,25
2023-04-18T12:15:00.137Z,25.1
2023-04-18T12:16:02.196Z,25.1
2023-04-18T12:17:04.304Z,25.1
2023-04-18T12:18:06.315Z,25.1
2023-04-18T12:19:08.215Z,25.1
2023-04-18T12:20:10.076Z,25.1
2023-04-18T12:21:12.014Z,25.2
2023-04-18T12:22:13.968Z,25.3
2023-04-18T12:23:15.852Z,25.3
2023-04-18T12:24:17.669Z,25.2
2023-04-18T12:25:19.623Z,25.1
2023-04-18T12:26:21.558Z,25.1
2023-04-18T12:27:23.426Z,25
2023-04-18T12:28:25.254Z,25
2023-04-18T12:29:27.121Z,25
2023-04-18T12:30:29.480Z,24.9
2023-04-18T12:31:31.265Z,24.9
2023-04-18T12:32:33.322Z,24.8
2023-04-18T12:33:35.234Z,24.7
2023-04-18T12:34:37.040Z,24.7
2023-04-18T12:35:39.046Z,24.7
2023-04-18T12:36:40.898Z,24.8
2023-04-18T12:37:42.959Z,24.9
2023-04-18T12:38:44.848Z,25
2023-04-18T12:39:46.588Z,25
2023-04-18T12:40:48.408Z,24.9
2023-04-18T12:41:50.444Z,24.9
2023-04-18T12:42:52.303Z,24.7
2023-04-18T12:43:54.185Z,24.7
2023-04-18T12:44:55.964Z,24.8
2023-04-18T12:45:57.960Z,24.8
2023-04-18T12:46:59.810Z,24.8
2023-04-18T12:48:01.826Z,24.9
2023-04-18T12:49:03.886Z,24.9
2023-04-18T12:50:05.883Z,25
2023-04-18T12:51:07.821Z,24.9
2023-04-18T12:52:09.717Z,24.9
2023-04-18T12:53:11.942Z,24.6
2023-04-18T12:54:14.296Z,24.9
2023-04-18T12:55:16.766Z,24.7
2023-04-18T12:56:18.548Z,24.9
2023-04-18T12:57:20.358Z,24.9
2023-04-18T12:58:22.205Z,25
2023-04-18T12:59:24.018Z,25
2023-04-18T13:00:25.853Z,25
2023-04-18T13:01:28.011Z,25
2023-04-18T13:02:30.564Z,25
2023-04-18T13:03:32.890Z,25
2023-04-18T13:04:35.804Z,25
2023-04-18T13:05:38.533Z,24.9
2023-04-18T13:06:40.395Z,24.9
2023-04-18T13:07:42.236Z,24.8
2023-04-18T13:08:44.092Z,24.9
2023-04-18T13:09:45.966Z,24.8
2023-04-18T13:10:48.205Z,24.9
2023-04-18T13:11:50.135Z,24.9
2023-04-18T13:12:52.023Z,24.9
2023-04-18T13:13:53.842Z,25
2023-04-18T13:14:55.637Z,25
2023-04-18T13:15:57.345Z,24.9
2023-04-18T13:16:59.225Z,24.9
2023-04-18T13:18:01.371Z,24.8
2023-04-18T13:19:03.422Z,24.9
2023-04-18T13:20:05.209Z,24.8
2023-04-18T13:21:06.996Z,24.7
2023-04-18T13:22:08.994Z,24.6
2023-04-18T13:23:10.987Z,24.5
2023-04-18T13:24:12.861Z,24.6
2023-04-18T13:25:14.642Z,24.6
2023-04-18T13:26:16.554Z,24.6
2023-04-18T13:27:18.507Z,24.6
2023-04-18T13:28:20.204Z,24.7
2023-04-18T13:29:22.005Z,24.6
2023-04-18T13:30:23.870Z,24.6
2023-04-18T13:31:25.854Z,24.7
2023-04-18T13:32:27.896Z,24.6
2023-04-18T13:33:29.817Z,24.6
2023-04-18T13:34:31.641Z,24.5
2023-04-18T13:35:33.523Z,24.5
2023-04-18T13:36:35.966Z,24.5
2023-04-18T13:37:38.967Z,24.4
2023-04-18T13:38:40.911Z,24.4
2023-04-18T13:39:42.854Z,24.5
2023-04-18T13:40:44.632Z,24.5
2023-04-18T13:41:46.459Z,24.5
2023-04-18T13:42:48.305Z,24.5
2023-04-18T13:43:50.156Z,24.5
2023-04-18T13:44:51.902Z,24.4
2023-04-18T13:45:53.580Z,24.4
2023-04-18T13:46:55.736Z,24.4
2023-04-18T13:47:57.673Z,24.3
2023-04-18T13:48:59.636Z,24.3
2023-04-18T13:50:01.633Z,24.2
2023-04-18T13:51:03.507Z,24.1
2023-04-18T13:52:05.237Z,24.1
2023-04-18T13:53:07.121Z,24.2
2023-04-18T13:54:09.077Z,24.2
2023-04-18T13:55:11.227Z,24.2
2023-04-18T13:56:12.997Z,24.3